sensor_id;sensor_type;location;lat;lon;timestamp;temperature;humidity
46900;DHT22;32647;49.382;7.078;2022-12-18T00:02:42;-6.70;99.90
46900;DHT22;32647;49.382;7.078;2022-12-18T00:05:28;-6.60;99.90
46900;DHT22;32647;49.382;7.078;2022-12-18T00:08:15;-6.60;99.90
46900;DHT22;32647;49.382;7.078;2022-12-18T00:11:08;-6.60;99.90
46900;DHT22;32647;49.382;7.078;2022-12-18T00:13:56;-6.70;99.90
46900;DHT22;32647;49.382;7.078;2022-12-18T00:16:46;-6.70;99.90
46900;DHT22;32647;49.382;7.078;2022-12-18T00:19:32;-6.80;99.90
46900;DHT22;32647;49.382;7.078;2022-12-18T00:22:18;-6.80;99.90
46900;DHT22;32647;49.382;7.078;2022-12-18T00:25:04;-6.70;99.90
46900;DHT22;32647;49.382;7.078;2022-12-18T00:27:50;-6.70;99.90
46900;DHT22;32647;49.382;7.078;2022-12-18T00:30:36;-6.50;99.90
46900;DHT22;32647;49.382;7.078;2022-12-18T00:33:22;-6.50;99.90
46900;DHT22;32647;49.382;7.078;2022-12-18T00:36:12;-6.60;99.90
46900;DHT22;32647;49.382;7.078;2022-12-18T00:38:59;-6.50;99.90
46900;DHT22;32647;49.382;7.078;2022-12-18T00:41:45;-6.40;99.90
46900;DHT22;32647;49.382;7.078;2022-12-18T00:44:50;-6.40;99.90
46900;DHT22;32647;49.382;7.078;2022-12-18T00:47:37;-6.30;99.90
46900;DHT22;32647;49.382;7.078;2022-12-18T00:50:24;-6.30;99.90
46900;DHT22;32647;49.382;7.078;2022-12-18T00:53:11;-6.30;99.90
46900;DHT22;32647;49.382;7.078;2022-12-18T00:55:56;-6.30;99.90
46900;DHT22;32647;49.382;7.078;2022-12-18T00:58:42;-6.30;99.90
46900;DHT22;32647;49.382;7.078;2022-12-18T01:01:28;-6.30;99.90
46900;DHT22;32647;49.382;7.078;2022-12-18T01:04:14;-6.40;99.90
46900;DHT22;32647;49.382;7.078;2022-12-18T01:07:00;-6.40;99.90
46900;DHT22;32647;49.382;7.078;2022-12-18T01:09:46;-6.40;99.90
46900;DHT22;32647;49.382;7.078;2022-12-18T01:12:32;-6.40;99.90
46900;DHT22;32647;49.382;7.078;2022-12-18T01:15:19;-6.30;99.90
46900;DHT22;32647;49.382;7.078;2022-12-18T01:18:06;-6.10;99.90
46900;DHT22;32647;49.382;7.078;2022-12-18T01:20:52;-6.10;99.90
46900;DHT22;32647;49.382;7.078;2022-12-18T01:23:38;-6.00;99.90
46900;DHT22;32647;49.382;7.078;2022-12-18T01:26:25;-6.00;99.90
46900;DHT22;32647;49.382;7.078;2022-12-18T01:29:11;-6.00;99.90
46900;DHT22;32647;49.382;7.078;2022-12-18T01:31:57;-6.00;99.90
46900;DHT22;32647;49.382;7.078;2022-12-18T01:34:43;-6.00;99.90
46900;DHT22;32647;49.382;7.078;2022-12-18T01:37:29;-6.10;99.90
46900;DHT22;32647;49.382;7.078;2022-12-18T01:40:15;-6.30;99.90
46900;DHT22;32647;49.382;7.078;2022-12-18T01:43:01;-6.30;99.90
46900;DHT22;32647;49.382;7.078;2022-12-18T01:45:47;-6.40;99.90
46900;DHT22;32647;49.382;7.078;2022-12-18T01:48:33;-6.50;99.90
46900;DHT22;32647;49.382;7.078;2022-12-18T01:51:19;-6.50;99.90
46900;DHT22;32647;49.382;7.078;2022-12-18T01:54:06;-6.40;99.90
46900;DHT22;32647;49.382;7.078;2022-12-18T01:56:51;-6.40;99.90
46900;DHT22;32647;49.382;7.078;2022-12-18T01:59:39;-6.40;99.90
46900;DHT22;32647;49.382;7.078;2022-12-18T02:02:27;-6.40;99.90
46900;DHT22;32647;49.382;7.078;2022-12-18T02:05:18;-6.40;99.90
46900;DHT22;32647;49.382;7.078;2022-12-18T02:08:26;-6.40;99.90
46900;DHT22;32647;49.382;7.078;2022-12-18T02:14:20;-6.50;99.90
46900;DHT22;32647;49.382;7.078;2022-12-18T02:17:20;-6.60;99.90
46900;DHT22;32647;49.382;7.078;2022-12-18T02:20:30;-6.60;99.90
46900;DHT22;32647;49.382;7.078;2022-12-18T02:23:47;-6.50;99.90
46900;DHT22;32647;49.382;7.078;2022-12-18T02:26:43;-6.50;99.90
46900;DHT22;32647;49.382;7.078;2022-12-18T02:29:42;-6.60;99.90
46900;DHT22;32647;49.382;7.078;2022-12-18T02:32:43;-6.70;99.90
46900;DHT22;32647;49.382;7.078;2022-12-18T02:35:31;-6.60;99.90
46900;DHT22;32647;49.382;7.078;2022-12-18T02:38:18;-6.60;99.90
46900;DHT22;32647;49.382;7.078;2022-12-18T02:41:05;-6.70;99.90
46900;DHT22;32647;49.382;7.078;2022-12-18T02:44:00;-6.80;99.90
46900;DHT22;32647;49.382;7.078;2022-12-18T02:46:50;-6.80;99.90
46900;DHT22;32647;49.382;7.078;2022-12-18T02:50:35;-7.00;99.90
46900;DHT22;32647;49.382;7.078;2022-12-18T02:56:09;-6.90;99.90
46900;DHT22;32647;49.382;7.078;2022-12-18T03:01:56;-7.00;99.90
46900;DHT22;32647;49.382;7.078;2022-12-18T03:04:49;-7.20;99.90
46900;DHT22;32647;49.382;7.078;2022-12-18T03:08:28;-7.20;99.90
46900;DHT22;32647;49.382;7.078;2022-12-18T03:11:03;-7.30;99.90
46900;DHT22;32647;49.382;7.078;2022-12-18T03:13:56;-7.20;99.90
46900;DHT22;32647;49.382;7.078;2022-12-18T03:16:43;-7.10;99.90
46900;DHT22;32647;49.382;7.078;2022-12-18T03:19:32;-7.30;99.90
46900;DHT22;32647;49.382;7.078;2022-12-18T03:22:19;-7.30;99.90
46900;DHT22;32647;49.382;7.078;2022-12-18T03:25:09;-7.20;99.90
46900;DHT22;32647;49.382;7.078;2022-12-18T03:27:58;-7.30;99.90
46900;DHT22;32647;49.382;7.078;2022-12-18T03:30:47;-7.30;99.90
46900;DHT22;32647;49.382;7.078;2022-12-18T03:36:40;-7.30;99.90
46900;DHT22;32647;49.382;7.078;2022-12-18T03:39:26;-7.40;99.90
46900;DHT22;32647;49.382;7.078;2022-12-18T03:45:34;-7.40;99.90
46900;DHT22;32647;49.382;7.078;2022-12-18T03:48:46;-7.50;99.90
46900;DHT22;32647;49.382;7.078;2022-12-18T03:51:50;-7.50;99.90
46900;DHT22;32647;49.382;7.078;2022-12-18T03:54:39;-7.60;99.90
46900;DHT22;32647;49.382;7.078;2022-12-18T03:57:29;-7.50;99.90
46900;DHT22;32647;49.382;7.078;2022-12-18T04:00:18;-7.70;99.90
46900;DHT22;32647;49.382;7.078;2022-12-18T04:03:05;-7.90;99.90
46900;DHT22;32647;49.382;7.078;2022-12-18T04:05:52;-7.80;99.90
46900;DHT22;32647;49.382;7.078;2022-12-18T04:08:40;-7.80;99.90
46900;DHT22;32647;49.382;7.078;2022-12-18T04:11:26;-7.80;99.90
46900;DHT22;32647;49.382;7.078;2022-12-18T04:14:13;-7.90;99.90
46900;DHT22;32647;49.382;7.078;2022-12-18T04:16:59;-7.90;99.90
46900;DHT22;32647;49.382;7.078;2022-12-18T04:19:45;-8.00;99.90
46900;DHT22;32647;49.382;7.078;2022-12-18T04:22:30;-8.00;99.90
46900;DHT22;32647;49.382;7.078;2022-12-18T04:25:16;-7.90;99.90
46900;DHT22;32647;49.382;7.078;2022-12-18T04:28:02;-7.80;99.90
46900;DHT22;32647;49.382;7.078;2022-12-18T04:30:49;-7.80;99.90
46900;DHT22;32647;49.382;7.078;2022-12-18T04:33:35;-7.90;99.90
46900;DHT22;32647;49.382;7.078;2022-12-18T04:36:21;-7.90;99.90
46900;DHT22;32647;49.382;7.078;2022-12-18T04:39:07;-8.00;99.90
46900;DHT22;32647;49.382;7.078;2022-12-18T04:41:53;-8.10;99.90
46900;DHT22;32647;49.382;7.078;2022-12-18T04:44:38;-8.10;99.90
46900;DHT22;32647;49.382;7.078;2022-12-18T04:47:24;-8.00;99.90
46900;DHT22;32647;49.382;7.078;2022-12-18T04:50:10;-8.10;99.90
46900;DHT22;32647;49.382;7.078;2022-12-18T04:52:57;-8.30;99.90
46900;DHT22;32647;49.382;7.078;2022-12-18T04:55:43;-8.40;99.90
46900;DHT22;32647;49.382;7.078;2022-12-18T04:58:29;-8.50;99.90
46900;DHT22;32647;49.382;7.078;2022-12-18T05:01:16;-8.50;99.90
46900;DHT22;32647;49.382;7.078;2022-12-18T05:04:03;-8.60;99.90
46900;DHT22;32647;49.382;7.078;2022-12-18T05:06:49;-8.60;99.90
46900;DHT22;32647;49.382;7.078;2022-12-18T05:09:35;-8.70;99.90
46900;DHT22;32647;49.382;7.078;2022-12-18T05:12:21;-8.80;99.90
46900;DHT22;32647;49.382;7.078;2022-12-18T05:15:09;-8.80;99.90
46900;DHT22;32647;49.382;7.078;2022-12-18T05:17:58;-8.80;99.90
46900;DHT22;32647;49.382;7.078;2022-12-18T05:20:44;-8.90;99.90
46900;DHT22;32647;49.382;7.078;2022-12-18T05:23:31;-9.00;99.90
46900;DHT22;32647;49.382;7.078;2022-12-18T05:26:20;-9.00;99.90
46900;DHT22;32647;49.382;7.078;2022-12-18T05:29:06;-9.00;99.90
46900;DHT22;32647;49.382;7.078;2022-12-18T05:31:52;-9.00;99.90
46900;DHT22;32647;49.382;7.078;2022-12-18T05:34:38;-9.00;99.90
46900;DHT22;32647;49.382;7.078;2022-12-18T05:37:24;-9.10;99.90
46900;DHT22;32647;49.382;7.078;2022-12-18T05:40:11;-9.10;99.90
46900;DHT22;32647;49.382;7.078;2022-12-18T05:42:57;-9.10;99.90
46900;DHT22;32647;49.382;7.078;2022-12-18T05:45:43;-9.10;99.90
46900;DHT22;32647;49.382;7.078;2022-12-18T05:48:29;-9.10;99.90
46900;DHT22;32647;49.382;7.078;2022-12-18T05:51:17;-9.10;99.90
46900;DHT22;32647;49.382;7.078;2022-12-18T05:54:03;-9.20;99.90
46900;DHT22;32647;49.382;7.078;2022-12-18T05:56:49;-9.20;99.90
46900;DHT22;32647;49.382;7.078;2022-12-18T05:59:35;-9.20;99.90
46900;DHT22;32647;49.382;7.078;2022-12-18T06:02:21;-9.20;99.90
46900;DHT22;32647;49.382;7.078;2022-12-18T06:05:07;-9.20;99.90
46900;DHT22;32647;49.382;7.078;2022-12-18T06:07:53;-9.20;99.90
46900;DHT22;32647;49.382;7.078;2022-12-18T06:10:40;-9.20;99.90
46900;DHT22;32647;49.382;7.078;2022-12-18T06:13:26;-9.20;99.90
46900;DHT22;32647;49.382;7.078;2022-12-18T06:16:12;-9.20;99.90
46900;DHT22;32647;49.382;7.078;2022-12-18T06:18:59;-9.30;99.90
46900;DHT22;32647;49.382;7.078;2022-12-18T06:21:46;-9.30;99.90
46900;DHT22;32647;49.382;7.078;2022-12-18T06:24:32;-9.30;99.90
46900;DHT22;32647;49.382;7.078;2022-12-18T06:27:18;-9.40;99.90
46900;DHT22;32647;49.382;7.078;2022-12-18T06:30:05;-9.40;99.90
46900;DHT22;32647;49.382;7.078;2022-12-18T06:32:51;-9.40;99.90
46900;DHT22;32647;49.382;7.078;2022-12-18T06:35:37;-9.40;99.90
46900;DHT22;32647;49.382;7.078;2022-12-18T06:38:23;-9.40;99.90
46900;DHT22;32647;49.382;7.078;2022-12-18T06:41:17;-9.30;99.90
46900;DHT22;32647;49.382;7.078;2022-12-18T06:44:03;-9.20;99.90
46900;DHT22;32647;49.382;7.078;2022-12-18T06:46:49;-9.10;99.90
46900;DHT22;32647;49.382;7.078;2022-12-18T06:49:35;-9.00;99.90
46900;DHT22;32647;49.382;7.078;2022-12-18T06:52:21;-9.10;99.90
46900;DHT22;32647;49.382;7.078;2022-12-18T06:55:07;-9.20;99.90
46900;DHT22;32647;49.382;7.078;2022-12-18T06:57:54;-9.20;99.90
46900;DHT22;32647;49.382;7.078;2022-12-18T07:00:40;-9.10;99.90
46900;DHT22;32647;49.382;7.078;2022-12-18T07:03:27;-9.10;99.90
46900;DHT22;32647;49.382;7.078;2022-12-18T07:06:18;-9.10;99.90
46900;DHT22;32647;49.382;7.078;2022-12-18T07:09:04;-9.00;99.90
46900;DHT22;32647;49.382;7.078;2022-12-18T07:11:52;-9.00;99.90
46900;DHT22;32647;49.382;7.078;2022-12-18T07:14:38;-9.00;99.90
46900;DHT22;32647;49.382;7.078;2022-12-18T07:17:23;-9.00;99.90
46900;DHT22;32647;49.382;7.078;2022-12-18T07:20:10;-9.10;99.90
46900;DHT22;32647;49.382;7.078;2022-12-18T07:22:56;-9.10;99.90
46900;DHT22;32647;49.382;7.078;2022-12-18T07:25:41;-9.10;99.90
46900;DHT22;32647;49.382;7.078;2022-12-18T07:28:27;-9.10;99.90
46900;DHT22;32647;49.382;7.078;2022-12-18T07:31:17;-9.10;99.90
46900;DHT22;32647;49.382;7.078;2022-12-18T07:34:04;-9.00;99.90
46900;DHT22;32647;49.382;7.078;2022-12-18T07:36:50;-9.10;99.90
46900;DHT22;32647;49.382;7.078;2022-12-18T07:39:36;-9.10;99.90
46900;DHT22;32647;49.382;7.078;2022-12-18T07:42:22;-9.10;99.90
46900;DHT22;32647;49.382;7.078;2022-12-18T07:45:16;-9.10;99.90
46900;DHT22;32647;49.382;7.078;2022-12-18T07:48:02;-9.10;99.90
46900;DHT22;32647;49.382;7.078;2022-12-18T07:50:49;-9.10;99.90
46900;DHT22;32647;49.382;7.078;2022-12-18T07:53:35;-9.10;99.90
46900;DHT22;32647;49.382;7.078;2022-12-18T07:56:21;-9.00;99.90
46900;DHT22;32647;49.382;7.078;2022-12-18T07:59:07;-8.80;99.90
46900;DHT22;32647;49.382;7.078;2022-12-18T08:01:54;-8.70;99.90
46900;DHT22;32647;49.382;7.078;2022-12-18T08:04:40;-8.70;99.90
46900;DHT22;32647;49.382;7.078;2022-12-18T08:07:26;-8.50;99.90
46900;DHT22;32647;49.382;7.078;2022-12-18T08:10:12;-8.40;99.90
46900;DHT22;32647;49.382;7.078;2022-12-18T08:12:58;-8.30;99.90
46900;DHT22;32647;49.382;7.078;2022-12-18T08:15:44;-8.20;99.90
46900;DHT22;32647;49.382;7.078;2022-12-18T08:18:35;-8.10;99.90
46900;DHT22;32647;49.382;7.078;2022-12-18T08:21:24;-8.00;99.90
46900;DHT22;32647;49.382;7.078;2022-12-18T08:24:10;-8.00;99.90
46900;DHT22;32647;49.382;7.078;2022-12-18T08:26:56;-7.90;99.90
46900;DHT22;32647;49.382;7.078;2022-12-18T08:29:42;-7.90;99.90
46900;DHT22;32647;49.382;7.078;2022-12-18T08:32:28;-7.90;99.90
46900;DHT22;32647;49.382;7.078;2022-12-18T08:35:14;-7.80;99.90
46900;DHT22;32647;49.382;7.078;2022-12-18T08:38:00;-7.80;99.90
46900;DHT22;32647;49.382;7.078;2022-12-18T08:40:46;-7.70;99.90
46900;DHT22;32647;49.382;7.078;2022-12-18T08:43:32;-7.60;99.90
46900;DHT22;32647;49.382;7.078;2022-12-18T08:46:41;-7.60;99.90
46900;DHT22;32647;49.382;7.078;2022-12-18T08:49:27;-7.50;99.90
46900;DHT22;32647;49.382;7.078;2022-12-18T08:52:13;-7.40;99.90
46900;DHT22;32647;49.382;7.078;2022-12-18T08:54:59;-7.40;99.90
46900;DHT22;32647;49.382;7.078;2022-12-18T08:57:48;-7.40;99.90
46900;DHT22;32647;49.382;7.078;2022-12-18T09:00:35;-7.30;99.90
46900;DHT22;32647;49.382;7.078;2022-12-18T09:03:21;-7.30;99.90
46900;DHT22;32647;49.382;7.078;2022-12-18T09:06:08;-7.10;99.90
46900;DHT22;32647;49.382;7.078;2022-12-18T09:08:54;-7.00;99.90
46900;DHT22;32647;49.382;7.078;2022-12-18T09:11:40;-6.70;99.90
46900;DHT22;32647;49.382;7.078;2022-12-18T09:14:26;-6.60;99.90
46900;DHT22;32647;49.382;7.078;2022-12-18T09:17:12;-6.50;99.90
46900;DHT22;32647;49.382;7.078;2022-12-18T09:19:58;-6.50;99.90
46900;DHT22;32647;49.382;7.078;2022-12-18T09:22:44;-6.50;99.90
46900;DHT22;32647;49.382;7.078;2022-12-18T09:25:30;-6.40;99.90
46900;DHT22;32647;49.382;7.078;2022-12-18T09:28:21;-6.30;99.90
46900;DHT22;32647;49.382;7.078;2022-12-18T09:31:08;-6.10;99.90
46900;DHT22;32647;49.382;7.078;2022-12-18T09:33:55;-5.90;99.90
46900;DHT22;32647;49.382;7.078;2022-12-18T09:36:42;-5.70;99.90
46900;DHT22;32647;49.382;7.078;2022-12-18T09:39:28;-5.70;99.90
46900;DHT22;32647;49.382;7.078;2022-12-18T09:42:22;-5.70;99.90
46900;DHT22;32647;49.382;7.078;2022-12-18T09:45:12;-5.60;99.90
46900;DHT22;32647;49.382;7.078;2022-12-18T09:48:01;-5.60;99.90
46900;DHT22;32647;49.382;7.078;2022-12-18T09:50:48;-5.50;99.90
46900;DHT22;32647;49.382;7.078;2022-12-18T09:53:37;-5.50;99.90
46900;DHT22;32647;49.382;7.078;2022-12-18T09:56:25;-5.50;99.90
46900;DHT22;32647;49.382;7.078;2022-12-18T09:59:22;-5.40;99.90
46900;DHT22;32647;49.382;7.078;2022-12-18T10:02:24;-5.40;99.90
46900;DHT22;32647;49.382;7.078;2022-12-18T10:05:14;-5.30;99.90
46900;DHT22;32647;49.382;7.078;2022-12-18T10:11:23;-5.10;99.90
46900;DHT22;32647;49.382;7.078;2022-12-18T10:20:16;-5.00;99.90
46900;DHT22;32647;49.382;7.078;2022-12-18T10:26:11;-4.90;99.90
46900;DHT22;32647;49.382;7.078;2022-12-18T10:29:01;-4.80;99.90
46900;DHT22;32647;49.382;7.078;2022-12-18T10:31:48;-4.80;99.90
46900;DHT22;32647;49.382;7.078;2022-12-18T10:34:34;-4.70;99.90
46900;DHT22;32647;49.382;7.078;2022-12-18T10:37:23;-4.80;99.90
46900;DHT22;32647;49.382;7.078;2022-12-18T10:40:15;-4.70;99.90
46900;DHT22;32647;49.382;7.078;2022-12-18T10:43:12;-4.80;99.90
46900;DHT22;32647;49.382;7.078;2022-12-18T10:48:55;-4.80;99.90
46900;DHT22;32647;49.382;7.078;2022-12-18T10:51:42;-4.80;99.90
46900;DHT22;32647;49.382;7.078;2022-12-18T10:54:34;-4.90;99.90
46900;DHT22;32647;49.382;7.078;2022-12-18T10:57:31;-5.00;99.90
46900;DHT22;32647;49.382;7.078;2022-12-18T11:00:26;-4.90;99.90
46900;DHT22;32647;49.382;7.078;2022-12-18T11:03:40;-4.90;99.90
46900;DHT22;32647;49.382;7.078;2022-12-18T11:06:26;-4.80;99.90
46900;DHT22;32647;49.382;7.078;2022-12-18T11:09:24;-4.70;99.90
46900;DHT22;32647;49.382;7.078;2022-12-18T11:12:17;-4.70;99.90
46900;DHT22;32647;49.382;7.078;2022-12-18T11:15:05;-4.90;99.90
46900;DHT22;32647;49.382;7.078;2022-12-18T11:17:52;-4.70;99.90
46900;DHT22;32647;49.382;7.078;2022-12-18T11:20:39;-4.50;99.90
46900;DHT22;32647;49.382;7.078;2022-12-18T11:23:25;-4.60;99.90
46900;DHT22;32647;49.382;7.078;2022-12-18T11:26:11;-4.50;99.90
46900;DHT22;32647;49.382;7.078;2022-12-18T11:29:17;-4.40;99.90
46900;DHT22;32647;49.382;7.078;2022-12-18T11:32:24;-4.50;99.90
46900;DHT22;32647;49.382;7.078;2022-12-18T11:38:28;-4.70;99.90
46900;DHT22;32647;49.382;7.078;2022-12-18T11:41:59;-4.80;99.90
46900;DHT22;32647;49.382;7.078;2022-12-18T11:45:02;-4.70;99.90
46900;DHT22;32647;49.382;7.078;2022-12-18T11:48:04;-4.70;99.90
46900;DHT22;32647;49.382;7.078;2022-12-18T11:50:56;-4.80;99.90
46900;DHT22;32647;49.382;7.078;2022-12-18T11:53:43;-4.90;99.90
46900;DHT22;32647;49.382;7.078;2022-12-18T11:56:36;-4.80;99.90
46900;DHT22;32647;49.382;7.078;2022-12-18T12:02:47;-4.50;99.90
46900;DHT22;32647;49.382;7.078;2022-12-18T12:17:58;-4.50;99.90
46900;DHT22;32647;49.382;7.078;2022-12-18T12:20:57;-4.30;99.90
46900;DHT22;32647;49.382;7.078;2022-12-18T12:39:20;-3.80;99.90
46900;DHT22;32647;49.382;7.078;2022-12-18T12:42:18;-4.00;99.90
46900;DHT22;32647;49.382;7.078;2022-12-18T12:45:36;-3.90;99.90
46900;DHT22;32647;49.382;7.078;2022-12-18T12:48:37;-4.00;99.90
46900;DHT22;32647;49.382;7.078;2022-12-18T12:51:27;-3.80;99.90
46900;DHT22;32647;49.382;7.078;2022-12-18T12:54:20;-3.70;99.90
46900;DHT22;32647;49.382;7.078;2022-12-18T13:00:13;-3.70;99.90
46900;DHT22;32647;49.382;7.078;2022-12-18T13:03:09;-3.70;99.90
46900;DHT22;32647;49.382;7.078;2022-12-18T13:06:07;-3.70;99.90
46900;DHT22;32647;49.382;7.078;2022-12-18T13:08:59;-3.50;99.90
46900;DHT22;32647;49.382;7.078;2022-12-18T13:11:46;-3.50;99.90
46900;DHT22;32647;49.382;7.078;2022-12-18T13:14:51;-3.50;99.90
46900;DHT22;32647;49.382;7.078;2022-12-18T13:17:37;-3.50;99.90
46900;DHT22;32647;49.382;7.078;2022-12-18T13:20:42;-3.30;99.90
46900;DHT22;32647;49.382;7.078;2022-12-18T13:23:33;-3.30;99.90
46900;DHT22;32647;49.382;7.078;2022-12-18T13:29:09;-3.30;99.90
46900;DHT22;32647;49.382;7.078;2022-12-18T13:34:26;-3.30;99.90
46900;DHT22;32647;49.382;7.078;2022-12-18T13:46:42;-3.10;99.90
46900;DHT22;32647;49.382;7.078;2022-12-18T13:52:24;-3.10;99.90
46900;DHT22;32647;49.382;7.078;2022-12-18T13:55:16;-3.20;99.90
46900;DHT22;32647;49.382;7.078;2022-12-18T13:58:05;-3.30;99.90
46900;DHT22;32647;49.382;7.078;2022-12-18T14:00:51;-3.20;99.90
46900;DHT22;32647;49.382;7.078;2022-12-18T14:03:37;-3.10;99.90
46900;DHT22;32647;49.382;7.078;2022-12-18T14:06:23;-3.20;99.90
46900;DHT22;32647;49.382;7.078;2022-12-18T14:09:14;-3.30;99.90
46900;DHT22;32647;49.382;7.078;2022-12-18T14:12:00;-3.20;99.90
46900;DHT22;32647;49.382;7.078;2022-12-18T14:15:06;-3.10;99.90
46900;DHT22;32647;49.382;7.078;2022-12-18T14:18:03;-3.10;99.90
46900;DHT22;32647;49.382;7.078;2022-12-18T14:20:58;-3.30;99.90
46900;DHT22;32647;49.382;7.078;2022-12-18T14:23:45;-3.30;99.90
46900;DHT22;32647;49.382;7.078;2022-12-18T14:26:32;-3.30;99.90
46900;DHT22;32647;49.382;7.078;2022-12-18T14:29:30;-3.30;99.90
46900;DHT22;32647;49.382;7.078;2022-12-18T14:32:18;-3.30;99.90
46900;DHT22;32647;49.382;7.078;2022-12-18T14:35:13;-3.40;99.90
46900;DHT22;32647;49.382;7.078;2022-12-18T14:38:32;-3.40;99.90
46900;DHT22;32647;49.382;7.078;2022-12-18T14:41:19;-3.40;99.90
46900;DHT22;32647;49.382;7.078;2022-12-18T14:44:10;-3.40;99.90
46900;DHT22;32647;49.382;7.078;2022-12-18T14:46:57;-3.50;99.90
46900;DHT22;32647;49.382;7.078;2022-12-18T14:49:43;-3.50;99.90
46900;DHT22;32647;49.382;7.078;2022-12-18T14:52:31;-3.50;99.90
46900;DHT22;32647;49.382;7.078;2022-12-18T14:55:18;-3.50;99.90
46900;DHT22;32647;49.382;7.078;2022-12-18T14:58:05;-3.60;99.90
46900;DHT22;32647;49.382;7.078;2022-12-18T15:00:51;-3.60;99.90
46900;DHT22;32647;49.382;7.078;2022-12-18T15:03:43;-3.60;99.90
46900;DHT22;32647;49.382;7.078;2022-12-18T15:06:37;-3.70;99.90
46900;DHT22;32647;49.382;7.078;2022-12-18T15:09:26;-3.60;99.90
46900;DHT22;32647;49.382;7.078;2022-12-18T15:18:31;-3.60;99.90
46900;DHT22;32647;49.382;7.078;2022-12-18T15:21:19;-3.70;99.90
46900;DHT22;32647;49.382;7.078;2022-12-18T15:24:18;-3.70;99.90
46900;DHT22;32647;49.382;7.078;2022-12-18T15:30:25;-3.70;99.90
46900;DHT22;32647;49.382;7.078;2022-12-18T15:33:26;-3.80;99.90
46900;DHT22;32647;49.382;7.078;2022-12-18T15:36:15;-3.70;99.90
46900;DHT22;32647;49.382;7.078;2022-12-18T15:39:01;-3.80;99.90
46900;DHT22;32647;49.382;7.078;2022-12-18T15:41:47;-3.80;99.90
46900;DHT22;32647;49.382;7.078;2022-12-18T15:45:13;-3.80;99.90
46900;DHT22;32647;49.382;7.078;2022-12-18T15:48:00;-3.80;99.90
46900;DHT22;32647;49.382;7.078;2022-12-18T15:50:52;-3.90;99.90
46900;DHT22;32647;49.382;7.078;2022-12-18T15:53:39;-3.80;99.90
46900;DHT22;32647;49.382;7.078;2022-12-18T15:56:25;-3.80;99.90
46900;DHT22;32647;49.382;7.078;2022-12-18T15:59:29;-3.70;99.90
46900;DHT22;32647;49.382;7.078;2022-12-18T16:02:17;-3.70;99.90
46900;DHT22;32647;49.382;7.078;2022-12-18T16:05:13;-3.80;99.90
46900;DHT22;32647;49.382;7.078;2022-12-18T16:08:00;-3.80;99.90
46900;DHT22;32647;49.382;7.078;2022-12-18T16:10:46;-3.80;99.90
46900;DHT22;32647;49.382;7.078;2022-12-18T16:13:32;-3.70;99.90
46900;DHT22;32647;49.382;7.078;2022-12-18T16:16:18;-3.80;99.90
46900;DHT22;32647;49.382;7.078;2022-12-18T16:19:04;-3.80;99.90
46900;DHT22;32647;49.382;7.078;2022-12-18T16:21:51;-3.70;99.90
46900;DHT22;32647;49.382;7.078;2022-12-18T16:24:38;-3.70;99.90
46900;DHT22;32647;49.382;7.078;2022-12-18T16:27:24;-3.70;99.90
46900;DHT22;32647;49.382;7.078;2022-12-18T16:30:16;-3.70;99.90
46900;DHT22;32647;49.382;7.078;2022-12-18T16:33:02;-3.70;99.90
46900;DHT22;32647;49.382;7.078;2022-12-18T16:35:52;-3.70;99.90
46900;DHT22;32647;49.382;7.078;2022-12-18T16:38:38;-3.70;99.90
46900;DHT22;32647;49.382;7.078;2022-12-18T16:41:23;-3.70;99.90
46900;DHT22;32647;49.382;7.078;2022-12-18T16:44:19;-3.70;99.90
46900;DHT22;32647;49.382;7.078;2022-12-18T16:47:05;-3.60;99.90
46900;DHT22;32647;49.382;7.078;2022-12-18T16:49:51;-3.60;99.90
46900;DHT22;32647;49.382;7.078;2022-12-18T16:52:38;-3.50;99.90
46900;DHT22;32647;49.382;7.078;2022-12-18T16:55:24;-3.50;99.90
46900;DHT22;32647;49.382;7.078;2022-12-18T16:58:10;-3.50;99.90
46900;DHT22;32647;49.382;7.078;2022-12-18T17:00:56;-3.50;99.90
46900;DHT22;32647;49.382;7.078;2022-12-18T17:03:42;-3.50;99.90
46900;DHT22;32647;49.382;7.078;2022-12-18T17:06:30;-3.50;99.90
46900;DHT22;32647;49.382;7.078;2022-12-18T17:09:18;-3.50;99.90
46900;DHT22;32647;49.382;7.078;2022-12-18T17:12:10;-3.50;99.90
46900;DHT22;32647;49.382;7.078;2022-12-18T17:14:56;-3.50;99.90
46900;DHT22;32647;49.382;7.078;2022-12-18T17:17:42;-3.50;99.90
46900;DHT22;32647;49.382;7.078;2022-12-18T17:20:29;-3.50;99.90
46900;DHT22;32647;49.382;7.078;2022-12-18T17:23:15;-3.50;99.90
46900;DHT22;32647;49.382;7.078;2022-12-18T17:26:01;-3.50;99.90
46900;DHT22;32647;49.382;7.078;2022-12-18T17:28:47;-3.50;99.90
46900;DHT22;32647;49.382;7.078;2022-12-18T17:31:34;-3.50;99.90
46900;DHT22;32647;49.382;7.078;2022-12-18T17:36:52;-3.40;99.90
46900;DHT22;32647;49.382;7.078;2022-12-18T17:39:38;-3.40;99.90
46900;DHT22;32647;49.382;7.078;2022-12-18T17:42:24;-3.40;99.90
46900;DHT22;32647;49.382;7.078;2022-12-18T17:45:11;-3.40;99.90
46900;DHT22;32647;49.382;7.078;2022-12-18T17:47:56;-3.40;99.90
46900;DHT22;32647;49.382;7.078;2022-12-18T17:50:42;-3.40;99.90
46900;DHT22;32647;49.382;7.078;2022-12-18T17:53:29;-3.40;99.90
46900;DHT22;32647;49.382;7.078;2022-12-18T17:56:16;-3.30;99.90
46900;DHT22;32647;49.382;7.078;2022-12-18T17:59:03;-3.40;99.90
46900;DHT22;32647;49.382;7.078;2022-12-18T18:01:49;-3.30;99.90
46900;DHT22;32647;49.382;7.078;2022-12-18T18:04:35;-3.30;99.90
46900;DHT22;32647;49.382;7.078;2022-12-18T18:07:21;-3.30;99.90
46900;DHT22;32647;49.382;7.078;2022-12-18T18:10:07;-3.20;99.90
46900;DHT22;32647;49.382;7.078;2022-12-18T18:12:53;-3.20;99.90
46900;DHT22;32647;49.382;7.078;2022-12-18T18:15:58;-3.20;99.90
46900;DHT22;32647;49.382;7.078;2022-12-18T18:18:43;-3.20;99.90
46900;DHT22;32647;49.382;7.078;2022-12-18T18:21:30;-3.20;99.90
46900;DHT22;32647;49.382;7.078;2022-12-18T18:24:19;-3.20;99.90
46900;DHT22;32647;49.382;7.078;2022-12-18T18:27:08;-3.20;99.90
46900;DHT22;32647;49.382;7.078;2022-12-18T18:29:54;-3.20;99.90
46900;DHT22;32647;49.382;7.078;2022-12-18T18:32:40;-3.20;99.90
46900;DHT22;32647;49.382;7.078;2022-12-18T18:35:26;-3.10;99.90
46900;DHT22;32647;49.382;7.078;2022-12-18T18:38:12;-3.10;99.90
46900;DHT22;32647;49.382;7.078;2022-12-18T18:40:59;-3.10;99.90
46900;DHT22;32647;49.382;7.078;2022-12-18T18:43:45;-3.10;99.90
46900;DHT22;32647;49.382;7.078;2022-12-18T18:46:31;-3.00;99.90
46900;DHT22;32647;49.382;7.078;2022-12-18T18:49:17;-3.00;99.90
46900;DHT22;32647;49.382;7.078;2022-12-18T18:52:03;-3.00;99.90
46900;DHT22;32647;49.382;7.078;2022-12-18T18:54:49;-3.00;99.90
46900;DHT22;32647;49.382;7.078;2022-12-18T18:57:35;-3.00;99.90
46900;DHT22;32647;49.382;7.078;2022-12-18T19:00:21;-3.00;99.90
46900;DHT22;32647;49.382;7.078;2022-12-18T19:03:07;-2.90;99.90
46900;DHT22;32647;49.382;7.078;2022-12-18T19:05:55;-3.00;99.90
46900;DHT22;32647;49.382;7.078;2022-12-18T19:08:45;-2.90;99.90
46900;DHT22;32647;49.382;7.078;2022-12-18T19:11:31;-2.90;99.90
46900;DHT22;32647;49.382;7.078;2022-12-18T19:14:36;-2.90;99.90
46900;DHT22;32647;49.382;7.078;2022-12-18T19:17:22;-2.90;99.90
46900;DHT22;32647;49.382;7.078;2022-12-18T19:20:09;-2.90;99.90
46900;DHT22;32647;49.382;7.078;2022-12-18T19:22:55;-3.00;99.90
46900;DHT22;32647;49.382;7.078;2022-12-18T19:25:41;-3.00;99.90
46900;DHT22;32647;49.382;7.078;2022-12-18T19:28:27;-3.00;99.90